McAdoo, Texas
Current Conditions -  °F | °C
As of 3:19 AM on Saturday 20 Dec 2014 (Local Time) from KLBB Reporting Station
Haze Haze  
Wind Chill:   Ceiling: 400
Heat Index:   Visibility: 5mi
Dew Point:   Wind: 8mph
Humidity: 93%   Direction: 210°SSW
Pressure: 30.15"   Gusts: NA
Location:  33.73°N, 101.01°W
Report Text: KLBB 200919Z 21007KT 5SM BR OVC004 03/02 A3015 RMK AO2 T00330022
Loading
Personal Weather Stations






























Interactive Weather Map New forecast layout! Learn more

10-Day Weather Forecast

Advertisements
Track Severe Weather on mobile